createdAt,value
2019-02-26T00:00:47.356Z,6.79
2019-02-26T00:01:53.028Z,6.79
2019-02-26T00:03:01.825Z,6.79
2019-02-26T00:04:04.391Z,6.79
2019-02-26T00:05:08.717Z,6.80
2019-02-26T00:06:12.550Z,6.80
2019-02-26T00:07:20.599Z,6.80
2019-02-26T00:08:24.597Z,6.80
2019-02-26T00:09:29.980Z,6.79
2019-02-26T00:10:36.317Z,6.77
2019-02-26T00:11:40.322Z,6.77
2019-02-26T00:12:44.953Z,6.75
2019-02-26T00:13:50.762Z,6.74
2019-02-26T00:14:56.940Z,6.73
2019-02-26T00:16:05.588Z,6.73
2019-02-26T00:17:10.532Z,6.73
2019-02-26T00:18:13.875Z,6.72
2019-02-26T00:19:19.401Z,6.73
2019-02-26T00:20:23.551Z,6.74
2019-02-26T00:21:29.267Z,6.69
2019-02-26T00:22:34.388Z,6.63
2019-02-26T00:23:39.160Z,6.60
2019-02-26T00:24:44.475Z,6.60
2019-02-26T00:25:49.662Z,6.58
2019-02-26T00:26:54.457Z,6.56
2019-02-26T00:27:59.326Z,6.51
2019-02-26T00:29:04.483Z,6.45
2019-02-26T00:30:11.334Z,6.41
2019-02-26T00:31:16.339Z,6.39
2019-02-26T00:32:20.277Z,6.38
2019-02-26T00:33:26.763Z,6.38
2019-02-26T00:34:32.271Z,6.41
2019-02-26T00:35:36.854Z,6.28
2019-02-26T00:36:40.695Z,6.43
2019-02-26T00:37:46.639Z,6.43
2019-02-26T00:38:51.823Z,6.45
2019-02-26T00:39:56.473Z,6.44
2019-02-26T00:41:02.186Z,6.43
2019-02-26T00:42:06.658Z,6.42
2019-02-26T00:43:11.158Z,6.40
2019-02-26T00:44:15.421Z,6.39
2019-02-26T00:45:24.749Z,6.38
2019-02-26T00:46:26.379Z,6.36
2019-02-26T00:47:33.904Z,6.36
2019-02-26T00:48:40.254Z,6.35
2019-02-26T00:49:44.227Z,6.35
2019-02-26T00:50:52.197Z,6.34
2019-02-26T00:51:56.170Z,6.34
2019-02-26T00:53:01.811Z,6.35
2019-02-26T00:54:05.975Z,6.34
2019-02-26T00:55:10.634Z,6.34
2019-02-26T00:56:15.147Z,6.35
2019-02-26T00:57:19.297Z,6.35
2019-02-26T00:58:23.132Z,6.35
2019-02-26T00:59:27.414Z,6.34
2019-02-26T01:00:33.192Z,6.34
2019-02-26T01:01:38.367Z,6.32
2019-02-26T01:02:42.730Z,6.32
2019-02-26T01:03:49.238Z,6.31
2019-02-26T01:04:52.890Z,6.31
2019-02-26T01:05:59.111Z,6.29
2019-02-26T01:07:05.325Z,6.29
2019-02-26T01:08:12.760Z,6.27
2019-02-26T01:09:15.344Z,6.28
2019-02-26T01:10:21.230Z,6.27
2019-02-26T01:11:27.888Z,6.27
2019-02-26T01:12:33.023Z,6.27
2019-02-26T01:13:38.334Z,6.27
2019-02-26T01:14:44.065Z,6.26
2019-02-26T01:15:48.453Z,6.26
2019-02-26T01:16:52.607Z,6.24
2019-02-26T01:17:58.779Z,6.24
2019-02-26T01:19:02.753Z,6.23
2019-02-26T01:20:09.582Z,6.23
2019-02-26T01:21:14.243Z,6.22
2019-02-26T01:22:18.728Z,6.19
2019-02-26T01:23:24.379Z,6.19
2019-02-26T01:24:30.460Z,6.17
2019-02-26T01:25:38.236Z,6.14
2019-02-26T01:26:42.918Z,6.15
2019-02-26T01:27:48.337Z,6.15
2019-02-26T01:28:53.669Z,6.15
2019-02-26T01:30:00.264Z,6.16
2019-02-26T01:31:05.020Z,6.16
2019-02-26T01:32:13.202Z,6.16
2019-02-26T01:33:16.039Z,6.15
2019-02-26T01:34:20.418Z,6.15
2019-02-26T01:35:26.179Z,6.12
2019-02-26T01:36:30.778Z,6.11
2019-02-26T01:37:36.621Z,6.11
2019-02-26T01:38:41.657Z,6.09
2019-02-26T01:39:47.853Z,6.09
2019-02-26T01:40:54.144Z,6.09
2019-02-26T01:41:58.852Z,6.08
2019-02-26T01:43:05.496Z,6.08
2019-02-26T01:44:08.960Z,6.06
2019-02-26T01:45:13.455Z,6.06
2019-02-26T01:46:18.753Z,6.04
2019-02-26T01:47:24.226Z,6.04
2019-02-26T01:48:32.024Z,6.03
2019-02-26T01:49:36.334Z,6.03
2019-02-26T01:50:40.795Z,6.01
2019-02-26T01:51:47.461Z,6.00
2019-02-26T01:52:51.883Z,6.00
2019-02-26T01:53:57.097Z,5.99
2019-02-26T01:55:02.798Z,5.97
2019-02-26T01:56:07.010Z,5.96
2019-02-26T01:57:11.239Z,5.96
2019-02-26T01:58:16.564Z,5.96
2019-02-26T01:59:20.606Z,5.93
2019-02-26T02:00:25.999Z,5.93
2019-02-26T02:01:29.912Z,5.93
2019-02-26T02:02:33.822Z,5.91
2019-02-26T02:03:38.055Z,5.91
2019-02-26T02:04:43.466Z,5.90
2019-02-26T02:05:48.531Z,5.90
2019-02-26T02:06:54.894Z,5.88
2019-02-26T02:07:59.898Z,5.87
2019-02-26T02:09:04.947Z,5.87
2019-02-26T02:10:10.612Z,5.85
2019-02-26T02:11:15.147Z,5.87
2019-02-26T02:12:19.650Z,5.86
2019-02-26T02:13:28.305Z,5.86
2019-02-26T02:14:30.250Z,5.85
2019-02-26T02:15:35.711Z,5.85
2019-02-26T02:16:40.055Z,5.87
2019-02-26T02:17:44.231Z,5.85
2019-02-26T02:18:48.879Z,5.85
2019-02-26T02:19:53.767Z,5.84
2019-02-26T02:20:58.257Z,5.82
2019-02-26T02:22:02.540Z,5.83
2019-02-26T02:23:07.147Z,5.81
2019-02-26T02:24:14.720Z,5.80
2019-02-26T02:25:17.334Z,5.82
2019-02-26T02:26:21.314Z,5.79
2019-02-26T02:27:28.127Z,5.79
2019-02-26T02:28:33.221Z,5.77
2019-02-26T02:29:37.185Z,5.76
2019-02-26T02:30:41.412Z,5.75
2019-02-26T02:31:45.607Z,5.74
2019-02-26T02:32:54.062Z,5.72
2019-02-26T02:33:55.743Z,5.74
2019-02-26T02:35:03.437Z,5.71
2019-02-26T02:36:05.784Z,5.69
2019-02-26T02:37:10.209Z,5.68
2019-02-26T02:38:14.121Z,5.68
2019-02-26T02:39:20.781Z,5.67
2019-02-26T02:40:23.912Z,5.66
2019-02-26T02:41:28.077Z,5.66
2019-02-26T02:42:35.063Z,5.66
2019-02-26T02:43:39.065Z,5.66
2019-02-26T02:44:44.858Z,5.64
2019-02-26T02:45:49.995Z,5.64
2019-02-26T02:46:54.828Z,5.66
2019-02-26T02:48:00.739Z,5.64
2019-02-26T02:49:07.381Z,5.64
2019-02-26T02:50:12.656Z,5.63
2019-02-26T02:51:17.455Z,5.61
2019-02-26T02:52:21.443Z,5.60
2019-02-26T02:53:27.413Z,5.58
2019-02-26T02:54:32.074Z,5.57
2019-02-26T02:55:37.921Z,5.56
2019-02-26T02:56:44.251Z,5.57
2019-02-26T02:57:51.951Z,5.56
2019-02-26T02:58:53.855Z,5.54
2019-02-26T02:59:59.685Z,5.53
2019-02-26T03:01:03.894Z,5.51
2019-02-26T03:02:09.340Z,5.50
2019-02-26T03:03:13.715Z,5.48
2019-02-26T03:04:19.774Z,5.47
2019-02-26T03:05:23.575Z,5.47
2019-02-26T03:06:30.182Z,5.47
2019-02-26T03:07:33.784Z,5.47
2019-02-26T03:08:39.511Z,5.34
2019-02-26T03:09:45.669Z,5.46
2019-02-26T03:10:49.380Z,5.46
2019-02-26T03:11:55.023Z,5.45
2019-02-26T03:13:00.425Z,5.45
2019-02-26T03:14:06.236Z,5.45
2019-02-26T03:15:11.892Z,5.44
2019-02-26T03:16:18.738Z,5.43
2019-02-26T03:17:21.868Z,5.43
2019-02-26T03:18:26.112Z,5.43
2019-02-26T03:19:32.662Z,5.40
2019-02-26T03:20:40.175Z,5.40
2019-02-26T03:21:44.631Z,5.38
2019-02-26T03:22:49.135Z,5.34
2019-02-26T03:23:53.071Z,5.32
2019-02-26T03:24:59.519Z,5.30
2019-02-26T03:26:03.360Z,5.27
2019-02-26T03:27:07.634Z,5.26
2019-02-26T03:28:11.563Z,5.24
2019-02-26T03:29:15.404Z,5.24
2019-02-26T03:30:26.731Z,5.23
2019-02-26T03:31:29.248Z,5.21
2019-02-26T03:32:36.044Z,5.20
2019-02-26T03:33:37.881Z,5.19
2019-02-26T03:34:42.511Z,5.19
2019-02-26T03:35:46.437Z,5.19
2019-02-26T03:36:50.617Z,5.18
2019-02-26T03:37:57.297Z,5.18
2019-02-26T03:39:02.771Z,5.17
2019-02-26T03:40:08.224Z,5.15
2019-02-26T03:41:13.273Z,5.14
2019-02-26T03:42:20.683Z,5.13
2019-02-26T03:43:23.220Z,5.12
2019-02-26T03:44:30.244Z,5.12
2019-02-26T03:45:34.224Z,5.11
2019-02-26T03:46:38.378Z,5.11
2019-02-26T03:47:42.363Z,5.11
2019-02-26T03:48:46.358Z,5.08
2019-02-26T03:49:50.477Z,5.11
2019-02-26T03:50:54.477Z,5.10
2019-02-26T03:52:00.037Z,5.08
2019-02-26T03:53:09.034Z,5.08
2019-02-26T03:54:10.483Z,5.08
2019-02-26T03:55:18.374Z,5.08
2019-02-26T03:56:20.674Z,5.08
2019-02-26T03:57:25.371Z,5.08
2019-02-26T03:58:29.396Z,5.07
2019-02-26T03:59:33.394Z,5.07
2019-02-26T04:00:40.964Z,5.07
2019-02-26T04:01:44.038Z,5.07
2019-02-26T04:02:50.924Z,5.05
2019-02-26T04:03:54.653Z,5.06
2019-02-26T04:05:03.013Z,5.04
2019-02-26T04:06:09.191Z,5.04
2019-02-26T04:07:11.888Z,5.04
2019-02-26T04:08:19.012Z,5.05
2019-02-26T04:09:22.949Z,5.04
2019-02-26T04:10:26.930Z,5.02
2019-02-26T04:11:30.765Z,4.95
2019-02-26T04:12:39.190Z,4.92
2019-02-26T04:13:40.999Z,4.88
2019-02-26T04:14:46.384Z,4.86
2019-02-26T04:15:53.305Z,4.88
2019-02-26T04:16:58.642Z,4.81
2019-02-26T04:18:03.072Z,4.77
2019-02-26T04:19:08.915Z,4.79
2019-02-26T04:20:12.876Z,4.75
2019-02-26T04:21:18.258Z,4.75
2019-02-26T04:22:33.059Z,4.73
2019-02-26T04:23:38.813Z,4.74
2019-02-26T04:24:42.938Z,4.72
2019-02-26T04:26:36.953Z,4.73
2019-02-26T04:28:10.836Z,4.74
2019-02-26T04:29:44.053Z,4.73
2019-02-26T04:31:27.286Z,4.72
2019-02-26T04:33:30.152Z,4.71
2019-02-26T04:34:41.587Z,4.68
2019-02-26T04:36:16.800Z,4.64
2019-02-26T04:37:53.684Z,4.64
2019-02-26T04:39:24.363Z,4.64
2019-02-26T04:40:47.727Z,4.63
2019-02-26T04:42:32.743Z,4.63
2019-02-26T04:44:13.490Z,4.62
2019-02-26T04:46:02.223Z,4.62
2019-02-26T04:47:23.597Z,4.62
2019-02-26T04:48:31.323Z,4.61
2019-02-26T04:49:36.730Z,4.62
2019-02-26T04:50:43.987Z,4.63
2019-02-26T04:51:48.381Z,4.64
2019-02-26T04:52:55.389Z,4.64
2019-02-26T04:54:00.113Z,4.64
2019-02-26T04:55:04.972Z,4.64
2019-02-26T04:56:14.400Z,4.64
2019-02-26T04:57:15.178Z,4.64
2019-02-26T04:58:20.746Z,4.63
2019-02-26T04:59:25.011Z,4.65
2019-02-26T05:00:30.458Z,4.65
2019-02-26T05:01:34.771Z,4.65
2019-02-26T05:02:38.964Z,4.65
2019-02-26T05:03:43.203Z,4.66
2019-02-26T05:04:47.544Z,4.65
2019-02-26T05:05:53.920Z,4.65
2019-02-26T05:06:57.179Z,4.65
2019-02-26T05:08:04.052Z,4.66
2019-02-26T05:09:08.075Z,4.66
2019-02-26T05:10:13.183Z,4.67
2019-02-26T05:11:30.781Z,4.66
2019-02-26T05:12:25.171Z,4.66
2019-02-26T05:13:30.206Z,4.67
2019-02-26T05:14:34.914Z,4.67
2019-02-26T05:15:39.068Z,4.66
2019-02-26T05:16:43.652Z,4.65
2019-02-26T05:17:48.000Z,4.64
2019-02-26T05:18:55.008Z,4.64
2019-02-26T05:19:57.784Z,4.62
2019-02-26T05:21:04.559Z,4.60
2019-02-26T05:22:08.440Z,4.61
2019-02-26T05:23:12.615Z,4.60
2019-02-26T05:24:18.005Z,4.58
2019-02-26T05:25:22.120Z,4.60
2019-02-26T05:26:26.253Z,4.59
2019-02-26T05:27:30.444Z,4.58
2019-02-26T05:28:37.632Z,4.57
2019-02-26T05:29:41.014Z,4.55
2019-02-26T05:30:49.524Z,4.52
2019-02-26T05:31:52.472Z,4.51
2019-02-26T05:32:58.253Z,4.49
2019-02-26T05:34:03.839Z,4.50
2019-02-26T05:35:07.836Z,4.50
2019-02-26T05:36:14.222Z,4.50
2019-02-26T05:37:17.901Z,4.50
2019-02-26T05:38:23.924Z,4.50
2019-02-26T05:39:28.843Z,4.51
2019-02-26T05:40:37.502Z,4.51
2019-02-26T05:41:40.539Z,4.49
2019-02-26T05:42:45.234Z,4.49
2019-02-26T05:43:52.174Z,4.48
2019-02-26T05:44:59.157Z,4.46
2019-02-26T05:46:03.862Z,4.46
2019-02-26T05:47:06.805Z,4.46
2019-02-26T05:48:12.729Z,4.45
2019-02-26T05:49:19.369Z,4.45
2019-02-26T05:50:22.952Z,4.46
2019-02-26T05:51:27.914Z,4.45
2019-02-26T05:52:35.654Z,4.43
2019-02-26T05:53:38.821Z,4.42
2019-02-26T05:54:42.728Z,4.42
2019-02-26T05:55:48.756Z,4.43
2019-02-26T05:56:52.965Z,4.44
2019-02-26T05:57:56.896Z,4.43
2019-02-26T05:59:04.347Z,4.44
2019-02-26T06:00:08.573Z,4.42
2019-02-26T06:01:16.160Z,4.38
2019-02-26T06:02:21.723Z,4.38
2019-02-26T06:03:25.712Z,4.38
2019-02-26T06:04:31.708Z,4.36
2019-02-26T06:05:35.828Z,4.37
2019-02-26T06:06:40.036Z,4.34
2019-02-26T06:07:44.953Z,4.32
2019-02-26T06:08:48.809Z,4.31
2019-02-26T06:09:55.731Z,4.34
2019-02-26T06:10:59.426Z,4.31
2019-02-26T06:12:03.274Z,4.32
2019-02-26T06:13:10.056Z,4.31
2019-02-26T06:14:14.053Z,4.31
2019-02-26T06:15:20.216Z,4.34
2019-02-26T06:16:26.592Z,4.27
2019-02-26T06:17:30.499Z,4.25
2019-02-26T06:18:34.849Z,4.25
2019-02-26T06:19:44.930Z,4.26
2019-02-26T06:20:51.585Z,4.30
2019-02-26T06:21:56.661Z,4.32
2019-02-26T06:23:00.804Z,4.35
2019-02-26T06:24:06.162Z,4.38
2019-02-26T06:25:18.415Z,4.41
2019-02-26T06:26:17.819Z,4.43
2019-02-26T06:27:24.768Z,4.44
2019-02-26T06:28:28.616Z,4.48
2019-02-26T06:29:35.082Z,4.53
2019-02-26T06:30:39.963Z,4.55
2019-02-26T06:31:45.074Z,4.58
2019-02-26T06:32:50.169Z,4.60
2019-02-26T06:33:54.766Z,4.63
2019-02-26T06:34:58.597Z,4.65
2019-02-26T06:36:04.688Z,4.68
2019-02-26T06:37:19.690Z,4.68
2019-02-26T06:38:25.872Z,4.68
2019-02-26T06:39:31.767Z,4.71
2019-02-26T06:40:36.968Z,4.74
2019-02-26T06:41:42.381Z,4.78
2019-02-26T06:42:48.082Z,4.81
2019-02-26T06:43:54.950Z,4.84
2019-02-26T06:44:58.399Z,4.87
2019-02-26T06:46:03.186Z,4.89
2019-02-26T06:47:09.140Z,4.91
2019-02-26T06:48:16.981Z,4.91
2019-02-26T06:49:20.598Z,4.92
2019-02-26T06:50:25.129Z,4.91
2019-02-26T06:51:30.934Z,4.88
2019-02-26T06:52:37.309Z,4.86
2019-02-26T06:53:45.032Z,4.85
2019-02-26T06:54:50.586Z,4.83
2019-02-26T06:55:52.585Z,4.82
2019-02-26T06:56:56.923Z,4.81
2019-02-26T06:58:19.651Z,4.80
2019-02-26T06:59:31.852Z,4.78
2019-02-26T07:00:35.265Z,4.75
2019-02-26T07:01:41.819Z,4.75
2019-02-26T07:02:46.207Z,4.75
2019-02-26T07:03:50.267Z,4.71
2019-02-26T07:04:54.439Z,4.68
2019-02-26T07:06:01.652Z,4.67
2019-02-26T07:07:06.355Z,4.67
2019-02-26T07:08:09.876Z,4.66
2019-02-26T07:09:16.429Z,4.66
2019-02-26T07:10:24.304Z,4.67
2019-02-26T07:11:28.112Z,4.68
2019-02-26T07:12:32.573Z,4.69
2019-02-26T07:13:39.169Z,4.70
2019-02-26T07:14:43.452Z,4.71
2019-02-26T07:15:47.657Z,4.73
2019-02-26T07:16:52.159Z,4.73
2019-02-26T07:18:00.097Z,4.74
2019-02-26T07:19:03.904Z,4.76
2019-02-26T07:20:09.131Z,4.76
2019-02-26T07:21:13.589Z,4.77
2019-02-26T07:22:18.338Z,4.78
2019-02-26T07:23:22.948Z,4.71
2019-02-26T07:24:27.286Z,4.83
2019-02-26T07:25:35.803Z,4.82
2019-02-26T07:26:41.156Z,4.79
2019-02-26T07:27:44.947Z,4.78
2019-02-26T07:28:50.925Z,4.76
2019-02-26T07:29:55.265Z,4.75
2019-02-26T07:31:00.462Z,4.70
2019-02-26T07:32:05.432Z,4.67
2019-02-26T07:33:10.407Z,4.69
2019-02-26T07:34:18.140Z,4.69
2019-02-26T07:35:21.432Z,4.65
2019-02-26T07:36:28.149Z,4.65
2019-02-26T07:37:34.047Z,4.58
2019-02-26T07:38:41.159Z,4.56
2019-02-26T07:39:44.325Z,4.56
2019-02-26T07:40:49.328Z,4.62
2019-02-26T07:41:54.403Z,4.62
2019-02-26T07:42:59.659Z,4.69
2019-02-26T07:44:03.556Z,4.69
2019-02-26T07:45:14.668Z,4.72
2019-02-26T07:46:14.592Z,4.67
2019-02-26T07:47:19.563Z,4.68
2019-02-26T07:48:26.201Z,4.66
2019-02-26T07:49:29.890Z,4.66
2019-02-26T07:50:37.435Z,4.68
2019-02-26T07:51:40.556Z,4.68
2019-02-26T07:52:47.311Z,4.69
2019-02-26T07:53:53.526Z,4.71
2019-02-26T07:54:57.484Z,4.74
2019-02-26T07:56:03.714Z,4.78
2019-02-26T07:57:07.592Z,4.82
2019-02-26T07:58:13.876Z,4.86
2019-02-26T07:59:27.252Z,4.90
2019-02-26T08:00:24.501Z,4.94
2019-02-26T08:01:28.434Z,4.98
2019-02-26T08:02:34.920Z,5.02
2019-02-26T08:03:39.338Z,5.05
2019-02-26T08:04:43.588Z,5.08
2019-02-26T08:05:47.679Z,5.12
2019-02-26T08:06:54.119Z,5.17
2019-02-26T08:07:58.647Z,5.21
2019-02-26T08:09:04.782Z,5.26
2019-02-26T08:10:12.821Z,5.28
2019-02-26T08:11:17.569Z,5.31
2019-02-26T08:12:22.056Z,5.35
2019-02-26T08:13:29.026Z,5.37
2019-02-26T08:14:32.606Z,5.40
2019-02-26T08:15:37.555Z,5.44
2019-02-26T08:16:42.232Z,5.48
2019-02-26T08:17:50.328Z,5.53
2019-02-26T08:18:54.120Z,5.57
2019-02-26T08:19:58.524Z,5.60
2019-02-26T08:21:03.031Z,5.64
2019-02-26T08:22:08.075Z,5.65
2019-02-26T08:23:12.326Z,5.66
2019-02-26T08:24:17.212Z,5.69
2019-02-26T08:25:22.178Z,5.71
2019-02-26T08:26:26.792Z,5.76
2019-02-26T08:27:33.313Z,5.81
2019-02-26T08:28:38.895Z,5.87
2019-02-26T08:29:43.402Z,5.90
2019-02-26T08:30:49.787Z,5.93
2019-02-26T08:31:54.586Z,5.97
2019-02-26T08:33:04.294Z,6.00
2019-02-26T08:34:06.315Z,6.04
2019-02-26T08:35:10.996Z,6.08
2019-02-26T08:36:14.857Z,6.14
2019-02-26T08:37:19.259Z,6.17
2019-02-26T08:38:23.171Z,6.21
2019-02-26T08:39:27.756Z,6.28
2019-02-26T08:40:32.444Z,6.30
2019-02-26T08:41:36.496Z,6.33
2019-02-26T08:42:40.452Z,6.36
2019-02-26T08:43:47.081Z,6.40
2019-02-26T08:44:51.994Z,6.44
2019-02-26T08:45:57.276Z,6.47
2019-02-26T08:47:06.009Z,6.53
2019-02-26T08:48:07.703Z,6.57
2019-02-26T08:49:13.777Z,6.61
2019-02-26T08:50:17.689Z,6.65
2019-02-26T08:51:22.565Z,6.69
2019-02-26T08:52:28.949Z,6.74
2019-02-26T08:53:32.808Z,6.80
2019-02-26T08:54:37.049Z,6.81
2019-02-26T08:55:41.452Z,6.86
2019-02-26T08:56:45.559Z,6.90
2019-02-26T08:57:51.543Z,6.92
2019-02-26T08:58:55.480Z,6.96
2019-02-26T08:59:59.749Z,6.99
2019-02-26T09:01:04.388Z,7.04
2019-02-26T09:02:08.394Z,7.09
2019-02-26T09:03:13.728Z,7.12
2019-02-26T09:04:21.061Z,7.15
2019-02-26T09:05:26.346Z,7.19
2019-02-26T09:06:30.014Z,7.23
2019-02-26T09:07:34.272Z,7.26
2019-02-26T09:08:40.652Z,7.35
2019-02-26T09:09:47.148Z,7.38
2019-02-26T09:10:50.451Z,7.43
2019-02-26T09:11:55.918Z,7.45
2019-02-26T09:13:00.480Z,7.50
2019-02-26T09:14:06.588Z,7.53
2019-02-26T09:15:12.426Z,7.53
2019-02-26T09:16:16.266Z,7.54
2019-02-26T09:17:23.174Z,7.60
2019-02-26T09:18:28.078Z,7.62
2019-02-26T09:19:33.012Z,7.65
2019-02-26T09:20:37.724Z,7.71
2019-02-26T09:21:44.599Z,7.75
2019-02-26T09:22:50.720Z,7.83
2019-02-26T09:23:56.907Z,7.87
2019-02-26T09:25:02.176Z,7.94
2019-02-26T09:26:07.057Z,7.94
2019-02-26T09:27:11.628Z,7.96
2019-02-26T09:28:15.630Z,8.00
2019-02-26T09:29:22.154Z,8.05
2019-02-26T09:30:27.945Z,8.13
2019-02-26T09:31:31.461Z,8.15
2019-02-26T09:32:37.428Z,8.22
2019-02-26T09:33:43.587Z,8.23
2019-02-26T09:34:46.992Z,8.26
2019-02-26T09:35:52.143Z,8.33
2019-02-26T09:36:58.223Z,8.37
2019-02-26T09:38:02.515Z,8.42
2019-02-26T09:39:08.759Z,8.46
2019-02-26T09:40:14.411Z,8.51
2019-02-26T09:41:19.407Z,8.55
2019-02-26T09:42:25.656Z,8.58
2019-02-26T09:43:29.697Z,8.63
2019-02-26T09:44:35.756Z,8.69
2019-02-26T09:45:41.192Z,8.73
2019-02-26T09:46:45.207Z,8.77
2019-02-26T09:47:50.196Z,8.80
2019-02-26T09:48:55.426Z,8.83
2019-02-26T09:49:59.700Z,8.90
2019-02-26T09:51:04.822Z,8.92
2019-02-26T09:52:09.736Z,8.96
2019-02-26T09:53:13.639Z,8.99
2019-02-26T09:54:20.019Z,9.09
2019-02-26T09:55:23.759Z,9.10
2019-02-26T09:56:28.195Z,9.14
2019-02-26T09:57:32.847Z,9.18
2019-02-26T09:58:37.481Z,9.22
2019-02-26T09:59:42.489Z,9.27
2019-02-26T10:00:48.119Z,9.31
2019-02-26T10:01:54.153Z,9.38
2019-02-26T10:02:58.291Z,9.43
2019-02-26T10:04:05.391Z,9.48
2019-02-26T10:05:08.640Z,9.52
2019-02-26T10:06:15.561Z,9.56
2019-02-26T10:07:19.196Z,9.61
2019-02-26T10:08:24.950Z,9.64
2019-02-26T10:09:28.698Z,9.68
2019-02-26T10:10:33.689Z,9.75
2019-02-26T10:11:40.280Z,9.79
2019-02-26T10:12:44.922Z,9.84
2019-02-26T10:13:49.402Z,9.88
2019-02-26T10:14:57.702Z,9.92
2019-02-26T10:16:02.043Z,9.97
2019-02-26T10:17:06.631Z,10.01
2019-02-26T10:18:10.536Z,10.07
2019-02-26T10:19:15.314Z,10.13
2019-02-26T10:20:24.773Z,10.17
2019-02-26T10:21:26.841Z,10.21
2019-02-26T10:22:33.364Z,10.26
2019-02-26T10:23:37.561Z,10.28
2019-02-26T10:24:42.010Z,10.32
2019-02-26T10:25:45.925Z,10.37
2019-02-26T10:26:49.834Z,10.43
2019-02-26T10:27:53.817Z,10.49
2019-02-26T10:29:03.683Z,10.52
2019-02-26T10:30:07.202Z,10.57
2019-02-26T10:31:09.766Z,10.61
2019-02-26T10:32:13.601Z,10.66
2019-02-26T10:33:19.178Z,10.71
2019-02-26T10:34:26.848Z,10.77
2019-02-26T10:35:33.161Z,10.82
2019-02-26T10:36:40.744Z,10.85
2019-02-26T10:37:53.051Z,10.89
2019-02-26T10:38:57.860Z,10.94
2019-02-26T10:40:02.865Z,11.00
2019-02-26T10:41:06.772Z,11.04
2019-02-26T10:42:12.161Z,11.09
2019-02-26T10:43:16.571Z,11.13
2019-02-26T10:44:21.244Z,11.20
2019-02-26T10:45:26.028Z,11.25
2019-02-26T10:46:32.140Z,11.30
2019-02-26T10:47:35.888Z,11.35
2019-02-26T10:48:41.607Z,11.38
2019-02-26T10:49:46.749Z,11.44
2019-02-26T10:50:52.005Z,11.50
2019-02-26T10:51:57.864Z,11.54
2019-02-26T10:53:07.333Z,11.60
2019-02-26T10:54:09.661Z,11.64
2019-02-26T10:55:17.299Z,11.69
2019-02-26T10:56:19.014Z,11.73
2019-02-26T10:57:22.991Z,11.78
2019-02-26T10:58:27.168Z,11.84
2019-02-26T10:59:31.065Z,11.89
2019-02-26T11:00:37.834Z,11.94
2019-02-26T11:01:41.473Z,11.98
2019-02-26T11:02:46.081Z,12.05
2019-02-26T11:03:52.844Z,12.09
2019-02-26T11:04:56.967Z,12.15
2019-02-26T11:06:01.396Z,12.20
2019-02-26T11:07:08.837Z,12.27
2019-02-26T11:08:11.011Z,12.35
2019-02-26T11:09:18.223Z,12.39
2019-02-26T11:10:22.706Z,12.44
2019-02-26T11:11:26.526Z,12.50
2019-02-26T11:12:33.409Z,12.54
2019-02-26T11:13:37.366Z,12.59
2019-02-26T11:14:42.386Z,12.64
2019-02-26T11:15:48.851Z,12.70
2019-02-26T11:16:53.730Z,12.75
2019-02-26T11:17:58.161Z,12.80
2019-02-26T11:19:04.225Z,12.87
2019-02-26T11:20:09.252Z,12.91
2019-02-26T11:21:13.174Z,12.96
2019-02-26T11:22:20.157Z,13.02
2019-02-26T11:23:30.739Z,13.08
2019-02-26T11:24:31.411Z,13.12
2019-02-26T11:25:36.940Z,13.17
2019-02-26T11:26:43.730Z,13.22
2019-02-26T11:27:48.513Z,13.28
2019-02-26T11:28:52.685Z,13.33
2019-02-26T11:29:57.818Z,13.40
2019-02-26T11:31:02.568Z,13.46
2019-02-26T11:32:07.806Z,13.51
2019-02-26T11:33:15.086Z,13.55
2019-02-26T11:34:18.660Z,13.61
2019-02-26T11:35:24.652Z,13.67
2019-02-26T11:36:31.243Z,13.69
2019-02-26T11:37:34.547Z,13.75
2019-02-26T11:38:40.200Z,13.82
2019-02-26T11:39:45.128Z,13.87
2019-02-26T11:40:49.053Z,13.94
2019-02-26T11:41:54.577Z,13.99
2019-02-26T11:43:00.078Z,14.03
2019-02-26T11:44:09.869Z,14.09
2019-02-26T11:45:17.427Z,14.14
2019-02-26T11:46:22.594Z,14.21
2019-02-26T11:47:26.360Z,14.26
2019-02-26T11:48:32.687Z,14.32
2019-02-26T11:49:36.888Z,14.37
2019-02-26T11:50:44.544Z,14.42
2019-02-26T11:51:48.473Z,14.47
2019-02-26T11:52:54.819Z,14.50
2019-02-26T11:54:00.073Z,14.55
2019-02-26T11:55:06.554Z,14.62
2019-02-26T11:56:10.796Z,14.66
2019-02-26T11:57:15.406Z,14.71
2019-02-26T11:58:22.308Z,14.76
2019-02-26T11:59:27.104Z,14.82
2019-02-26T12:00:45.485Z,14.87
2019-02-26T12:01:50.445Z,14.94
2019-02-26T12:02:54.731Z,15.00
2019-02-26T12:04:03.591Z,15.05
2019-02-26T12:05:08.000Z,15.10
2019-02-26T12:06:11.620Z,15.15
2019-02-26T12:07:15.543Z,15.21
2019-02-26T12:08:22.343Z,15.26
2019-02-26T12:09:25.705Z,15.30
2019-02-26T12:10:32.293Z,15.34
2019-02-26T12:11:35.711Z,15.38
2019-02-26T12:12:40.288Z,15.43
2019-02-26T12:13:45.176Z,15.47
2019-02-26T12:14:50.921Z,15.52
2019-02-26T12:15:55.077Z,15.56
2019-02-26T12:16:59.003Z,15.60
2019-02-26T12:18:03.250Z,15.64
2019-02-26T12:19:08.749Z,15.70
2019-02-26T12:20:14.856Z,15.74
2019-02-26T12:21:19.856Z,15.79
2019-02-26T12:22:25.112Z,15.83
2019-02-26T12:23:29.673Z,15.89
2019-02-26T12:24:36.015Z,15.93
2019-02-26T12:25:39.911Z,15.97
2019-02-26T12:26:45.284Z,16.02
2019-02-26T12:27:49.400Z,16.06
2019-02-26T12:28:54.724Z,16.09
2019-02-26T12:30:00.023Z,16.14
2019-02-26T12:31:05.141Z,16.17
2019-02-26T12:32:09.967Z,16.21
2019-02-26T12:33:14.773Z,16.24
2019-02-26T12:34:20.820Z,16.28
2019-02-26T12:35:24.756Z,16.30
2019-02-26T12:36:30.453Z,16.32
2019-02-26T12:37:35.388Z,16.35
2019-02-26T12:38:39.903Z,16.39
2019-02-26T12:39:47.447Z,16.42
2019-02-26T12:40:53.403Z,16.45
2019-02-26T12:41:56.211Z,16.46
2019-02-26T12:43:01.996Z,16.47
2019-02-26T12:44:10.960Z,16.52
2019-02-26T12:45:13.739Z,16.55
2019-02-26T12:46:19.775Z,16.58
2019-02-26T12:47:24.671Z,16.60
2019-02-26T12:48:29.349Z,16.63
2019-02-26T12:49:36.524Z,16.66
2019-02-26T12:50:40.585Z,16.69
2019-02-26T12:51:44.734Z,16.72
2019-02-26T12:52:51.598Z,16.75
2019-02-26T12:53:55.063Z,16.78
2019-02-26T12:55:00.706Z,16.79
2019-02-26T12:56:08.876Z,16.83
2019-02-26T12:57:12.089Z,16.86
2019-02-26T12:58:19.478Z,16.90
2019-02-26T12:59:22.254Z,16.92
2019-02-26T13:00:26.390Z,16.95
2019-02-26T13:01:33.147Z,16.97
2019-02-26T13:02:36.928Z,16.99
2019-02-26T13:03:42.831Z,17.03
2019-02-26T13:04:50.991Z,17.06
2019-02-26T13:05:53.718Z,17.08
2019-02-26T13:06:58.342Z,17.09
2019-02-26T13:08:03.297Z,17.11
2019-02-26T13:09:08.206Z,17.13
2019-02-26T13:10:14.886Z,17.16
2019-02-26T13:11:20.965Z,17.18
2019-02-26T13:12:31.571Z,17.21
2019-02-26T13:13:31.612Z,17.24
2019-02-26T13:14:35.614Z,17.27
2019-02-26T13:15:39.841Z,17.30
2019-02-26T13:16:46.282Z,17.34
2019-02-26T13:17:54.321Z,17.38
2019-02-26T13:19:00.175Z,17.39
2019-02-26T13:20:06.001Z,17.44
2019-02-26T13:21:12.748Z,17.46
2019-02-26T13:22:17.369Z,17.50
2019-02-26T13:23:20.733Z,17.53
2019-02-26T13:24:26.674Z,17.55
2019-02-26T13:25:30.904Z,17.59
2019-02-26T13:26:36.493Z,17.62
2019-02-26T13:27:43.774Z,17.65
2019-02-26T13:28:48.058Z,17.70
2019-02-26T13:29:55.222Z,17.73
2019-02-26T13:31:02.325Z,17.74
2019-02-26T13:32:07.506Z,17.76
2019-02-26T13:33:10.860Z,17.78
2019-02-26T13:34:15.892Z,17.81
2019-02-26T13:35:20.362Z,17.81
2019-02-26T13:36:24.775Z,17.83
2019-02-26T13:37:32.462Z,17.83
2019-02-26T13:38:44.073Z,17.84
2019-02-26T13:39:41.364Z,17.85
2019-02-26T13:40:46.266Z,17.85
2019-02-26T13:41:54.335Z,17.86
2019-02-26T13:44:01.930Z,17.86
2019-02-26T13:45:07.400Z,17.86
2019-02-26T13:46:11.765Z,17.87
2019-02-26T13:47:16.366Z,17.88
2019-02-26T13:48:21.192Z,17.88
2019-02-26T13:49:25.287Z,17.88
2019-02-26T13:50:29.546Z,17.89
2019-02-26T13:51:34.247Z,17.89
2019-02-26T13:52:38.740Z,17.90
2019-02-26T13:53:42.908Z,17.91
2019-02-26T13:54:46.819Z,17.91
2019-02-26T13:55:50.679Z,17.93
2019-02-26T13:56:55.005Z,17.93
2019-02-26T13:57:59.264Z,17.93
2019-02-26T13:59:03.605Z,17.93
2019-02-26T14:00:08.802Z,17.93
2019-02-26T14:01:13.120Z,17.95
2019-02-26T14:02:17.389Z,17.96
2019-02-26T14:03:21.579Z,17.95
2019-02-26T14:04:25.410Z,17.95
2019-02-26T14:05:37.723Z,17.97
2019-02-26T14:06:36.042Z,17.98
2019-02-26T14:07:40.239Z,17.98
2019-02-26T14:08:44.960Z,17.99
2019-02-26T14:09:49.058Z,18.01
2019-02-26T14:10:53.543Z,18.02
2019-02-26T14:11:57.455Z,18.03
2019-02-26T14:13:03.781Z,18.04
2019-02-26T14:14:07.484Z,18.05
2019-02-26T14:15:13.878Z,18.05
2019-02-26T14:16:17.820Z,18.05
2019-02-26T14:17:21.988Z,18.05
2019-02-26T14:18:26.219Z,18.06
2019-02-26T14:19:30.138Z,18.08
2019-02-26T14:20:34.134Z,18.09
2019-02-26T14:21:37.981Z,18.11
2019-02-26T14:22:42.208Z,18.14
2019-02-26T14:23:46.434Z,18.14
2019-02-26T14:24:50.702Z,18.14
2019-02-26T14:25:54.906Z,18.15
2019-02-26T14:26:59.214Z,18.15
2019-02-26T14:28:03.455Z,18.15